sensor_id;sensor_type;location;lat;lon;timestamp;pressure;altitude;pressure_sealevel;temperature;humidity
71573;BME280;59408;51.032;9.410;2022-07-23T00:01:59;99124.59;;;15.73;95.03
71573;BME280;59408;51.032;9.410;2022-07-23T00:04:26;99129.31;;;15.73;94.00
71573;BME280;59408;51.032;9.410;2022-07-23T00:06:53;99137.56;;;15.73;96.53
71573;BME280;59408;51.032;9.410;2022-07-23T00:09:19;99127.28;;;15.70;95.12
71573;BME280;59408;51.032;9.410;2022-07-23T00:11:46;99118.66;;;15.71;94.90
71573;BME280;59408;51.032;9.410;2022-07-23T00:14:12;99118.22;;;15.66;95.22
71573;BME280;59408;51.032;9.410;2022-07-23T00:16:40;99118.75;;;15.52;94.84
71573;BME280;59408;51.032;9.410;2022-07-23T00:19:07;99124.59;;;15.51;96.23
71573;BME280;59408;51.032;9.410;2022-07-23T00:21:33;99122.28;;;15.53;95.53
71573;BME280;59408;51.032;9.410;2022-07-23T00:24:00;99127.31;;;15.47;95.35
71573;BME280;59408;51.032;9.410;2022-07-23T00:26:26;99116.56;;;15.38;96.08
71573;BME280;59408;51.032;9.410;2022-07-23T00:28:53;99110.66;;;15.36;96.76
71573;BME280;59408;51.032;9.410;2022-07-23T00:31:19;99114.06;;;15.30;95.89
71573;BME280;59408;51.032;9.410;2022-07-23T00:33:48;99107.63;;;15.19;95.91
71573;BME280;59408;51.032;9.410;2022-07-23T00:36:14;99123.75;;;15.20;95.47
71573;BME280;59408;51.032;9.410;2022-07-23T00:38:42;99120.31;;;15.27;97.00
71573;BME280;59408;51.032;9.410;2022-07-23T00:41:08;99106.50;;;15.23;97.29
71573;BME280;59408;51.032;9.410;2022-07-23T00:43:35;99101.75;;;15.20;95.49
71573;BME280;59408;51.032;9.410;2022-07-23T00:46:01;99091.94;;;15.19;95.96
71573;BME280;59408;51.032;9.410;2022-07-23T00:48:28;99088.78;;;15.21;95.65
71573;BME280;59408;51.032;9.410;2022-07-23T00:50:56;99082.81;;;15.15;97.07
71573;BME280;59408;51.032;9.410;2022-07-23T00:53:23;99088.69;;;15.14;97.92
71573;BME280;59408;51.032;9.410;2022-07-23T00:55:49;99084.03;;;15.18;97.09
71573;BME280;59408;51.032;9.410;2022-07-23T00:58:16;99086.78;;;15.18;97.27
71573;BME280;59408;51.032;9.410;2022-07-23T01:00:43;99089.53;;;15.18;96.59
71573;BME280;59408;51.032;9.410;2022-07-23T01:03:10;99082.09;;;15.18;96.87
71573;BME280;59408;51.032;9.410;2022-07-23T01:05:36;99086.25;;;15.08;98.47
71573;BME280;59408;51.032;9.410;2022-07-23T01:08:05;99098.03;;;15.09;98.61
71573;BME280;59408;51.032;9.410;2022-07-23T01:10:32;99101.56;;;15.09;98.27
71573;BME280;59408;51.032;9.410;2022-07-23T01:12:59;99107.88;;;15.10;99.09
71573;BME280;59408;51.032;9.410;2022-07-23T01:15:26;99111.00;;;15.12;98.88
71573;BME280;59408;51.032;9.410;2022-07-23T01:17:53;99098.47;;;15.11;98.84
71573;BME280;59408;51.032;9.410;2022-07-23T01:20:20;99092.91;;;15.07;98.89
71573;BME280;59408;51.032;9.410;2022-07-23T01:22:48;99110.19;;;15.08;99.10
71573;BME280;59408;51.032;9.410;2022-07-23T01:25:15;99113.66;;;15.05;99.44
71573;BME280;59408;51.032;9.410;2022-07-23T01:27:42;99113.97;;;15.00;99.50
71573;BME280;59408;51.032;9.410;2022-07-23T01:30:09;99113.41;;;14.91;99.72
71573;BME280;59408;51.032;9.410;2022-07-23T01:32:35;99101.13;;;14.85;99.36
71573;BME280;59408;51.032;9.410;2022-07-23T01:35:03;99090.22;;;14.88;98.76
71573;BME280;59408;51.032;9.410;2022-07-23T01:37:29;99091.09;;;14.92;98.70
71573;BME280;59408;51.032;9.410;2022-07-23T01:39:57;99091.81;;;14.89;99.08
71573;BME280;59408;51.032;9.410;2022-07-23T01:42:24;99096.50;;;14.89;99.29
71573;BME280;59408;51.032;9.410;2022-07-23T01:44:51;99085.84;;;14.84;99.05
71573;BME280;59408;51.032;9.410;2022-07-23T01:47:18;99082.66;;;14.82;99.02
71573;BME280;59408;51.032;9.410;2022-07-23T01:49:44;99086.03;;;14.75;99.05
71573;BME280;59408;51.032;9.410;2022-07-23T01:52:11;99080.06;;;14.69;99.22
71573;BME280;59408;51.032;9.410;2022-07-23T01:54:38;99075.81;;;14.72;99.39
71573;BME280;59408;51.032;9.410;2022-07-23T01:57:06;99082.75;;;14.66;100.00
71573;BME280;59408;51.032;9.410;2022-07-23T01:59:33;99078.78;;;14.63;100.00
71573;BME280;59408;51.032;9.410;2022-07-23T02:02:00;99075.25;;;14.63;100.00
71573;BME280;59408;51.032;9.410;2022-07-23T02:04:27;99076.06;;;14.63;99.54
71573;BME280;59408;51.032;9.410;2022-07-23T02:06:54;99062.31;;;14.63;99.71
71573;BME280;59408;51.032;9.410;2022-07-23T02:09:20;99077.13;;;14.59;100.00
71573;BME280;59408;51.032;9.410;2022-07-23T02:11:47;99076.78;;;14.60;100.00
71573;BME280;59408;51.032;9.410;2022-07-23T02:14:15;99078.34;;;14.61;100.00
71573;BME280;59408;51.032;9.410;2022-07-23T02:16:41;99079.88;;;14.59;100.00
71573;BME280;59408;51.032;9.410;2022-07-23T02:19:08;99079.50;;;14.60;100.00
71573;BME280;59408;51.032;9.410;2022-07-23T02:21:35;99088.19;;;14.62;100.00
71573;BME280;59408;51.032;9.410;2022-07-23T02:24:01;99093.97;;;14.57;98.88
71573;BME280;59408;51.032;9.410;2022-07-23T02:26:28;99087.31;;;14.58;99.00
71573;BME280;59408;51.032;9.410;2022-07-23T02:28:54;99094.84;;;14.61;99.57
71573;BME280;59408;51.032;9.410;2022-07-23T02:31:22;99090.50;;;14.60;98.64
71573;BME280;59408;51.032;9.410;2022-07-23T02:33:49;99095.19;;;14.60;99.82
71573;BME280;59408;51.032;9.410;2022-07-23T02:36:16;99100.81;;;14.67;100.00
71573;BME280;59408;51.032;9.410;2022-07-23T02:38:42;99105.50;;;14.66;100.00
71573;BME280;59408;51.032;9.410;2022-07-23T02:41:09;99106.69;;;14.65;100.00
71573;BME280;59408;51.032;9.410;2022-07-23T02:43:36;99104.31;;;14.64;99.38
71573;BME280;59408;51.032;9.410;2022-07-23T02:46:02;99112.53;;;14.64;99.33
71573;BME280;59408;51.032;9.410;2022-07-23T02:48:30;99115.19;;;14.60;99.09
71573;BME280;59408;51.032;9.410;2022-07-23T02:50:57;99114.84;;;14.62;99.12
71573;BME280;59408;51.032;9.410;2022-07-23T02:53:24;99125.09;;;14.65;98.36
71573;BME280;59408;51.032;9.410;2022-07-23T02:55:50;99114.06;;;14.61;98.69
71573;BME280;59408;51.032;9.410;2022-07-23T02:58:17;99112.09;;;14.62;98.51
71573;BME280;59408;51.032;9.410;2022-07-23T03:00:43;99096.06;;;14.64;99.15
71573;BME280;59408;51.032;9.410;2022-07-23T03:03:10;99108.63;;;14.65;99.68
71573;BME280;59408;51.032;9.410;2022-07-23T03:05:38;99111.22;;;14.58;99.24
71573;BME280;59408;51.032;9.410;2022-07-23T03:08:05;99106.97;;;14.60;98.99
71573;BME280;59408;51.032;9.410;2022-07-23T03:10:31;99119.91;;;14.60;98.23
71573;BME280;59408;51.032;9.410;2022-07-23T03:12:58;99118.38;;;14.62;98.76
71573;BME280;59408;51.032;9.410;2022-07-23T03:15:25;99114.94;;;14.65;98.54
71573;BME280;59408;51.032;9.410;2022-07-23T03:17:51;99118.81;;;14.64;98.82
71573;BME280;59408;51.032;9.410;2022-07-23T03:20:18;99119.63;;;14.65;99.92
71573;BME280;59408;51.032;9.410;2022-07-23T03:22:46;99110.16;;;14.62;98.12
71573;BME280;59408;51.032;9.410;2022-07-23T03:25:12;99108.63;;;14.65;98.64
71573;BME280;59408;51.032;9.410;2022-07-23T03:27:39;99110.94;;;14.63;97.82
71573;BME280;59408;51.032;9.410;2022-07-23T03:30:07;99109.78;;;14.64;97.77
71573;BME280;59408;51.032;9.410;2022-07-23T03:32:33;99115.19;;;14.60;97.46
71573;BME280;59408;51.032;9.410;2022-07-23T03:35:00;99116.44;;;14.63;97.83
71573;BME280;59408;51.032;9.410;2022-07-23T03:37:27;99121.94;;;14.63;98.32
71573;BME280;59408;51.032;9.410;2022-07-23T03:39:56;99112.81;;;14.59;97.24
71573;BME280;59408;51.032;9.410;2022-07-23T03:42:22;99114.75;;;14.58;97.49
71573;BME280;59408;51.032;9.410;2022-07-23T03:44:49;99121.50;;;14.61;97.37
71573;BME280;59408;51.032;9.410;2022-07-23T03:47:16;99121.84;;;14.59;98.02
71573;BME280;59408;51.032;9.410;2022-07-23T03:49:42;99117.94;;;14.60;97.98
71573;BME280;59408;51.032;9.410;2022-07-23T03:52:09;99123.75;;;14.55;98.55
71573;BME280;59408;51.032;9.410;2022-07-23T03:54:35;99115.50;;;14.55;99.29
71573;BME280;59408;51.032;9.410;2022-07-23T03:57:03;99114.97;;;14.50;99.85
71573;BME280;59408;51.032;9.410;2022-07-23T03:59:31;99120.44;;;14.50;99.09
71573;BME280;59408;51.032;9.410;2022-07-23T04:01:58;99120.44;;;14.50;98.29
71573;BME280;59408;51.032;9.410;2022-07-23T04:04:25;99118.63;;;14.54;98.67
71573;BME280;59408;51.032;9.410;2022-07-23T04:06:51;99130.03;;;14.56;98.51
71573;BME280;59408;51.032;9.410;2022-07-23T04:09:18;99135.88;;;14.54;97.28
71573;BME280;59408;51.032;9.410;2022-07-23T04:11:46;99135.13;;;14.57;98.00
71573;BME280;59408;51.032;9.410;2022-07-23T04:14:14;99131.25;;;14.58;97.48
71573;BME280;59408;51.032;9.410;2022-07-23T04:16:40;99135.94;;;14.58;96.71
71573;BME280;59408;51.032;9.410;2022-07-23T04:19:07;99142.59;;;14.57;97.17
71573;BME280;59408;51.032;9.410;2022-07-23T04:21:33;99143.38;;;14.57;97.90
71573;BME280;59408;51.032;9.410;2022-07-23T04:24:00;99142.31;;;14.62;96.93
71573;BME280;59408;51.032;9.410;2022-07-23T04:26:27;99133.28;;;14.61;97.03
71573;BME280;59408;51.032;9.410;2022-07-23T04:28:53;99123.88;;;14.62;97.37
71573;BME280;59408;51.032;9.410;2022-07-23T04:31:21;99136.44;;;14.63;96.82
71573;BME280;59408;51.032;9.410;2022-07-23T04:33:48;99139.25;;;14.67;97.23
71573;BME280;59408;51.032;9.410;2022-07-23T04:36:15;99133.75;;;14.67;96.33
71573;BME280;59408;51.032;9.410;2022-07-23T04:38:41;99142.88;;;14.71;97.61
71573;BME280;59408;51.032;9.410;2022-07-23T04:41:08;99139.75;;;14.73;96.71
71573;BME280;59408;51.032;9.410;2022-07-23T04:43:34;99142.56;;;14.76;96.51
71573;BME280;59408;51.032;9.410;2022-07-23T04:46:01;99140.69;;;14.80;96.41
71573;BME280;59408;51.032;9.410;2022-07-23T04:48:29;99150.94;;;14.83;96.64
71573;BME280;59408;51.032;9.410;2022-07-23T04:50:56;99129.78;;;14.84;95.29
71573;BME280;59408;51.032;9.410;2022-07-23T04:53:22;99128.31;;;14.90;98.13
71573;BME280;59408;51.032;9.410;2022-07-23T04:55:49;99136.47;;;14.86;95.71
71573;BME280;59408;51.032;9.410;2022-07-23T04:58:15;99130.75;;;14.95;97.69
71573;BME280;59408;51.032;9.410;2022-07-23T05:00:42;99139.50;;;15.00;97.26
71573;BME280;59408;51.032;9.410;2022-07-23T05:03:09;99132.84;;;15.01;95.68
71573;BME280;59408;51.032;9.410;2022-07-23T05:05:37;99140.41;;;15.08;94.71
71573;BME280;59408;51.032;9.410;2022-07-23T05:08:04;99145.56;;;15.13;96.89
71573;BME280;59408;51.032;9.410;2022-07-23T05:10:31;99137.41;;;15.17;96.61
71573;BME280;59408;51.032;9.410;2022-07-23T05:12:57;99137.03;;;15.18;93.06
71573;BME280;59408;51.032;9.410;2022-07-23T05:15:24;99139.03;;;15.21;93.99
71573;BME280;59408;51.032;9.410;2022-07-23T05:17:50;99143.09;;;15.27;93.37
71573;BME280;59408;51.032;9.410;2022-07-23T05:20:17;99147.19;;;15.37;94.81
71573;BME280;59408;51.032;9.410;2022-07-23T05:22:45;99144.09;;;15.42;93.15
71573;BME280;59408;51.032;9.410;2022-07-23T05:25:12;99141.50;;;15.26;95.24
71573;BME280;59408;51.032;9.410;2022-07-23T05:27:38;99138.25;;;15.21;95.54
71573;BME280;59408;51.032;9.410;2022-07-23T05:30:06;99144.13;;;15.19;95.76
71573;BME280;59408;51.032;9.410;2022-07-23T05:32:33;99138.63;;;15.19;94.85
71573;BME280;59408;51.032;9.410;2022-07-23T05:34:59;99132.75;;;15.21;94.98
71573;BME280;59408;51.032;9.410;2022-07-23T05:37:26;99126.97;;;15.26;95.48
71573;BME280;59408;51.032;9.410;2022-07-23T05:39:54;99118.00;;;15.29;96.28
71573;BME280;59408;51.032;9.410;2022-07-23T05:42:20;99129.53;;;15.38;96.24
71573;BME280;59408;51.032;9.410;2022-07-23T05:44:47;99135.50;;;15.43;95.00
71573;BME280;59408;51.032;9.410;2022-07-23T05:47:14;99145.44;;;15.52;93.20
71573;BME280;59408;51.032;9.410;2022-07-23T05:49:40;99139.44;;;15.69;94.71
71573;BME280;59408;51.032;9.410;2022-07-23T05:52:07;99140.50;;;15.87;92.68
71573;BME280;59408;51.032;9.410;2022-07-23T05:54:34;99149.84;;;16.09;92.88
71573;BME280;59408;51.032;9.410;2022-07-23T05:57:02;99142.53;;;16.20;90.81
71573;BME280;59408;51.032;9.410;2022-07-23T05:59:29;99144.53;;;16.23;88.88
71573;BME280;59408;51.032;9.410;2022-07-23T06:01:55;99144.50;;;16.19;89.79
71573;BME280;59408;51.032;9.410;2022-07-23T06:04:22;99134.22;;;16.16;91.63
71573;BME280;59408;51.032;9.410;2022-07-23T06:06:49;99143.63;;;16.15;91.94
71573;BME280;59408;51.032;9.410;2022-07-23T06:09:15;99139.94;;;16.34;91.69
71573;BME280;59408;51.032;9.410;2022-07-23T06:11:42;99136.91;;;16.43;89.10
71573;BME280;59408;51.032;9.410;2022-07-23T06:14:10;99140.09;;;16.48;87.24
71573;BME280;59408;51.032;9.410;2022-07-23T06:16:36;99136.25;;;16.53;89.65
71573;BME280;59408;51.032;9.410;2022-07-23T06:19:03;99149.66;;;16.58;89.95
71573;BME280;59408;51.032;9.410;2022-07-23T06:21:30;99154.78;;;16.56;89.74
71573;BME280;59408;51.032;9.410;2022-07-23T06:24:13;99150.72;;;16.46;89.11
71573;BME280;59408;51.032;9.410;2022-07-23T06:26:40;99152.81;;;16.56;89.82
71573;BME280;59408;51.032;9.410;2022-07-23T06:29:06;99155.69;;;16.64;87.96
71573;BME280;59408;51.032;9.410;2022-07-23T06:31:34;99164.81;;;16.71;88.49
71573;BME280;59408;51.032;9.410;2022-07-23T06:34:01;99161.97;;;16.64;88.45
71573;BME280;59408;51.032;9.410;2022-07-23T06:36:28;99168.31;;;16.68;88.03
71573;BME280;59408;51.032;9.410;2022-07-23T06:38:54;99165.44;;;16.61;87.18
71573;BME280;59408;51.032;9.410;2022-07-23T06:41:21;99168.34;;;16.72;87.17
71573;BME280;59408;51.032;9.410;2022-07-23T06:43:47;99168.50;;;16.86;86.92
71573;BME280;59408;51.032;9.410;2022-07-23T06:46:14;99174.25;;;17.07;86.13
71573;BME280;59408;51.032;9.410;2022-07-23T06:48:42;99176.75;;;17.23;86.46
71573;BME280;59408;51.032;9.410;2022-07-23T06:51:09;99189.19;;;17.47;86.45
71573;BME280;59408;51.032;9.410;2022-07-23T06:53:35;99182.69;;;17.69;84.55
71573;BME280;59408;51.032;9.410;2022-07-23T06:56:02;99182.59;;;17.58;82.69
71573;BME280;59408;51.032;9.410;2022-07-23T06:58:29;99190.38;;;17.49;84.27
71573;BME280;59408;51.032;9.410;2022-07-23T07:00:55;99195.09;;;17.49;84.93
71573;BME280;59408;51.032;9.410;2022-07-23T07:03:45;99191.63;;;17.55;84.32
71573;BME280;59408;51.032;9.410;2022-07-23T07:06:11;99190.22;;;17.72;83.30
71573;BME280;59408;51.032;9.410;2022-07-23T07:08:38;99197.41;;;17.87;82.28
71573;BME280;59408;51.032;9.410;2022-07-23T07:11:06;99200.31;;;18.12;80.57
71573;BME280;59408;51.032;9.410;2022-07-23T07:13:33;99202.91;;;18.46;80.27
71573;BME280;59408;51.032;9.410;2022-07-23T07:16:00;99193.34;;;18.32;79.85
71573;BME280;59408;51.032;9.410;2022-07-23T07:18:26;99205.25;;;18.43;80.13
71573;BME280;59408;51.032;9.410;2022-07-23T07:20:54;99205.78;;;18.63;79.06
71573;BME280;59408;51.032;9.410;2022-07-23T07:23:22;99209.75;;;18.73;80.00
71573;BME280;59408;51.032;9.410;2022-07-23T07:25:49;99206.91;;;18.55;78.38
71573;BME280;59408;51.032;9.410;2022-07-23T07:28:15;99203.09;;;18.85;78.22
71573;BME280;59408;51.032;9.410;2022-07-23T07:30:42;99200.78;;;19.11;76.47
71573;BME280;59408;51.032;9.410;2022-07-23T07:33:08;99209.09;;;19.33;80.67
71573;BME280;59408;51.032;9.410;2022-07-23T07:35:35;99204.38;;;19.19;73.37
71573;BME280;59408;51.032;9.410;2022-07-23T07:38:03;99218.50;;;18.96;74.16
71573;BME280;59408;51.032;9.410;2022-07-23T07:40:30;99226.81;;;19.03;75.46
71573;BME280;59408;51.032;9.410;2022-07-23T07:43:00;99225.34;;;19.34;74.42
71573;BME280;59408;51.032;9.410;2022-07-23T07:45:27;99228.13;;;19.52;78.41
71573;BME280;59408;51.032;9.410;2022-07-23T07:47:53;99227.38;;;19.66;75.41
71573;BME280;59408;51.032;9.410;2022-07-23T07:50:21;99226.19;;;19.84;73.66
71573;BME280;59408;51.032;9.410;2022-07-23T07:52:48;99232.47;;;20.17;72.75
71573;BME280;59408;51.032;9.410;2022-07-23T07:55:16;99237.63;;;20.22;68.63
71573;BME280;59408;51.032;9.410;2022-07-23T07:57:43;99245.50;;;20.48;70.08
71573;BME280;59408;51.032;9.410;2022-07-23T08:00:15;99239.13;;;20.58;66.50
71573;BME280;59408;51.032;9.410;2022-07-23T08:02:43;99250.94;;;20.84;69.29
71573;BME280;59408;51.032;9.410;2022-07-23T08:05:11;99253.38;;;20.60;68.80
71573;BME280;59408;51.032;9.410;2022-07-23T08:07:37;99244.22;;;20.71;69.61
71573;BME280;59408;51.032;9.410;2022-07-23T08:10:05;99241.38;;;20.88;66.86
71573;BME280;59408;51.032;9.410;2022-07-23T08:12:39;99253.66;;;21.01;66.72
71573;BME280;59408;51.032;9.410;2022-07-23T08:15:07;99253.50;;;21.30;63.55
71573;BME280;59408;51.032;9.410;2022-07-23T08:17:40;99251.34;;;21.55;65.17
71573;BME280;59408;51.032;9.410;2022-07-23T08:20:09;99252.00;;;21.73;65.58
71573;BME280;59408;51.032;9.410;2022-07-23T08:22:47;99260.09;;;22.05;65.34
71573;BME280;59408;51.032;9.410;2022-07-23T08:25:14;99268.63;;;21.84;62.67
71573;BME280;59408;51.032;9.410;2022-07-23T08:27:43;99268.56;;;22.32;65.94
71573;BME280;59408;51.032;9.410;2022-07-23T08:30:10;99275.75;;;22.71;61.87
71573;BME280;59408;51.032;9.410;2022-07-23T08:32:54;99262.06;;;23.17;63.46
71573;BME280;59408;51.032;9.410;2022-07-23T08:35:24;99276.06;;;22.76;59.95
71573;BME280;59408;51.032;9.410;2022-07-23T08:37:50;99271.47;;;22.22;62.02
71573;BME280;59408;51.032;9.410;2022-07-23T08:40:17;99283.66;;;22.35;62.58
71573;BME280;59408;51.032;9.410;2022-07-23T08:42:47;99278.31;;;22.55;60.64
71573;BME280;59408;51.032;9.410;2022-07-23T08:45:16;99286.97;;;22.64;61.53
71573;BME280;59408;51.032;9.410;2022-07-23T08:47:44;99286.03;;;22.33;61.31
71573;BME280;59408;51.032;9.410;2022-07-23T08:50:17;99289.91;;;22.42;61.79
71573;BME280;59408;51.032;9.410;2022-07-23T08:52:45;99283.97;;;22.40;60.36
71573;BME280;59408;51.032;9.410;2022-07-23T08:55:12;99289.91;;;22.42;60.91
71573;BME280;59408;51.032;9.410;2022-07-23T08:57:39;99288.56;;;22.17;61.29
71573;BME280;59408;51.032;9.410;2022-07-23T09:00:08;99285.72;;;21.79;60.82
71573;BME280;59408;51.032;9.410;2022-07-23T09:02:39;99284.59;;;22.21;65.23
71573;BME280;59408;51.032;9.410;2022-07-23T09:05:07;99284.66;;;22.93;61.32
71573;BME280;59408;51.032;9.410;2022-07-23T09:07:33;99289.00;;;22.94;60.34
71573;BME280;59408;51.032;9.410;2022-07-23T09:10:08;99295.88;;;22.41;60.79
71573;BME280;59408;51.032;9.410;2022-07-23T09:12:36;99297.09;;;22.40;60.82
71573;BME280;59408;51.032;9.410;2022-07-23T09:15:05;99296.13;;;22.61;60.67
71573;BME280;59408;51.032;9.410;2022-07-23T09:17:39;99292.06;;;22.69;61.13
71573;BME280;59408;51.032;9.410;2022-07-23T09:20:10;99290.25;;;23.19;59.67
71573;BME280;59408;51.032;9.410;2022-07-23T09:22:44;99295.47;;;22.83;58.86
71573;BME280;59408;51.032;9.410;2022-07-23T09:25:12;99295.84;;;23.19;60.46
71573;BME280;59408;51.032;9.410;2022-07-23T09:27:55;99290.88;;;23.91;57.11
71573;BME280;59408;51.032;9.410;2022-07-23T09:30:23;99295.81;;;24.74;57.05
71573;BME280;59408;51.032;9.410;2022-07-23T09:33:06;99289.00;;;25.14;54.29
71573;BME280;59408;51.032;9.410;2022-07-23T09:35:47;99300.16;;;25.34;52.31
71573;BME280;59408;51.032;9.410;2022-07-23T09:38:14;99301.75;;;24.95;57.20
71573;BME280;59408;51.032;9.410;2022-07-23T09:40:41;99304.03;;;24.81;52.89
71573;BME280;59408;51.032;9.410;2022-07-23T09:43:08;99311.59;;;24.37;56.78
71573;BME280;59408;51.032;9.410;2022-07-23T09:45:35;99313.06;;;23.68;56.06
71573;BME280;59408;51.032;9.410;2022-07-23T09:48:13;99308.09;;;23.56;56.22
71573;BME280;59408;51.032;9.410;2022-07-23T09:50:40;99303.50;;;23.42;57.62
71573;BME280;59408;51.032;9.410;2022-07-23T09:53:07;99301.91;;;23.11;57.61
71573;BME280;59408;51.032;9.410;2022-07-23T09:55:35;99298.03;;;23.89;55.54
71573;BME280;59408;51.032;9.410;2022-07-23T09:58:02;99291.69;;;24.58;56.34
71573;BME280;59408;51.032;9.410;2022-07-23T10:00:30;99292.09;;;24.37;53.71
71573;BME280;59408;51.032;9.410;2022-07-23T10:02:58;99296.47;;;24.81;54.60
71573;BME280;59408;51.032;9.410;2022-07-23T10:05:28;99297.47;;;24.24;53.10
71573;BME280;59408;51.032;9.410;2022-07-23T10:07:55;99305.25;;;24.80;52.35
71573;BME280;59408;51.032;9.410;2022-07-23T10:10:26;99302.47;;;25.19;51.28
71573;BME280;59408;51.032;9.410;2022-07-23T10:12:53;99300.25;;;25.11;49.35
71573;BME280;59408;51.032;9.410;2022-07-23T10:15:20;99295.00;;;25.68;47.89
71573;BME280;59408;51.032;9.410;2022-07-23T10:17:48;99293.66;;;26.09;49.62
71573;BME280;59408;51.032;9.410;2022-07-23T10:20:15;99308.28;;;25.28;48.98
71573;BME280;59408;51.032;9.410;2022-07-23T10:22:47;99302.72;;;25.80;50.49
71573;BME280;59408;51.032;9.410;2022-07-23T10:25:25;99307.72;;;26.83;49.60
71573;BME280;59408;51.032;9.410;2022-07-23T10:28:12;99313.63;;;25.75;49.27
71573;BME280;59408;51.032;9.410;2022-07-23T10:30:54;99304.06;;;24.57;51.41
71573;BME280;59408;51.032;9.410;2022-07-23T10:33:32;99299.50;;;25.46;49.61
71573;BME280;59408;51.032;9.410;2022-07-23T10:36:09;99296.66;;;26.02;49.59
71573;BME280;59408;51.032;9.410;2022-07-23T10:38:48;99299.63;;;26.72;45.90
71573;BME280;59408;51.032;9.410;2022-07-23T10:41:30;99304.22;;;26.34;46.42
71573;BME280;59408;51.032;9.410;2022-07-23T10:44:06;99297.84;;;26.78;46.59
71573;BME280;59408;51.032;9.410;2022-07-23T10:46:34;99298.16;;;26.68;46.14
71573;BME280;59408;51.032;9.410;2022-07-23T10:49:25;99295.53;;;26.89;44.82
71573;BME280;59408;51.032;9.410;2022-07-23T10:52:16;99300.13;;;26.83;43.78
71573;BME280;59408;51.032;9.410;2022-07-23T10:54:47;99297.84;;;26.17;45.57
71573;BME280;59408;51.032;9.410;2022-07-23T10:57:14;99297.25;;;27.00;44.13
71573;BME280;59408;51.032;9.410;2022-07-23T11:00:09;99293.00;;;27.08;47.38
71573;BME280;59408;51.032;9.410;2022-07-23T11:02:38;99288.97;;;27.63;42.52
71573;BME280;59408;51.032;9.410;2022-07-23T11:05:08;99287.84;;;28.11;41.70
71573;BME280;59408;51.032;9.410;2022-07-23T11:10:33;99290.94;;;27.24;41.71
71573;BME280;59408;51.032;9.410;2022-07-23T11:13:27;99288.84;;;28.04;41.83
71573;BME280;59408;51.032;9.410;2022-07-23T11:16:05;99284.16;;;28.83;41.56
71573;BME280;59408;51.032;9.410;2022-07-23T11:19:05;99285.34;;;28.95;40.59
71573;BME280;59408;51.032;9.410;2022-07-23T11:21:48;99281.44;;;29.76;39.82
71573;BME280;59408;51.032;9.410;2022-07-23T11:24:17;99285.19;;;29.82;40.06
71573;BME280;59408;51.032;9.410;2022-07-23T11:26:48;99290.03;;;28.98;38.75
71573;BME280;59408;51.032;9.410;2022-07-23T11:29:46;99289.09;;;27.72;41.67
71573;BME280;59408;51.032;9.410;2022-07-23T11:32:28;99291.84;;;27.21;42.34
71573;BME280;59408;51.032;9.410;2022-07-23T11:34:56;99292.03;;;27.94;42.48
71573;BME280;59408;51.032;9.410;2022-07-23T11:37:43;99286.19;;;29.04;38.20
71573;BME280;59408;51.032;9.410;2022-07-23T11:40:12;99276.81;;;29.29;37.96
71573;BME280;59408;51.032;9.410;2022-07-23T11:42:52;99283.22;;;30.01;38.43
71573;BME280;59408;51.032;9.410;2022-07-23T11:45:20;99281.78;;;29.96;36.49
71573;BME280;59408;51.032;9.410;2022-07-23T11:47:46;99282.78;;;29.31;38.59
71573;BME280;59408;51.032;9.410;2022-07-23T11:50:13;99267.47;;;29.63;38.98
71573;BME280;59408;51.032;9.410;2022-07-23T11:52:40;99275.03;;;29.75;39.05
71573;BME280;59408;51.032;9.410;2022-07-23T11:55:08;99277.81;;;30.15;37.20
71573;BME280;59408;51.032;9.410;2022-07-23T11:57:37;99273.81;;;29.24;38.34
71573;BME280;59408;51.032;9.410;2022-07-23T12:00:08;99273.78;;;29.45;39.49
71573;BME280;59408;51.032;9.410;2022-07-23T12:02:35;99285.63;;;29.71;36.10
71573;BME280;59408;51.032;9.410;2022-07-23T12:05:02;99280.25;;;29.33;35.87
71573;BME280;59408;51.032;9.410;2022-07-23T12:07:31;99270.94;;;29.14;35.79
71573;BME280;59408;51.032;9.410;2022-07-23T12:10:00;99272.06;;;29.79;36.77
71573;BME280;59408;51.032;9.410;2022-07-23T12:12:35;99268.91;;;29.68;35.11
71573;BME280;59408;51.032;9.410;2022-07-23T12:15:02;99259.56;;;30.47;36.24
71573;BME280;59408;51.032;9.410;2022-07-23T12:17:32;99270.97;;;30.89;34.87
71573;BME280;59408;51.032;9.410;2022-07-23T12:20:00;99273.25;;;30.09;35.26
71573;BME280;59408;51.032;9.410;2022-07-23T12:22:34;99262.03;;;30.36;38.33
71573;BME280;59408;51.032;9.410;2022-07-23T12:25:04;99255.75;;;31.05;33.49
71573;BME280;59408;51.032;9.410;2022-07-23T12:27:32;99262.91;;;31.33;34.79
71573;BME280;59408;51.032;9.410;2022-07-23T12:29:58;99259.88;;;30.95;34.40
71573;BME280;59408;51.032;9.410;2022-07-23T12:32:27;99258.59;;;30.59;34.59
71573;BME280;59408;51.032;9.410;2022-07-23T12:35:05;99254.53;;;30.60;33.89
71573;BME280;59408;51.032;9.410;2022-07-23T12:37:33;99272.03;;;30.28;33.73
71573;BME280;59408;51.032;9.410;2022-07-23T12:40:18;99257.28;;;30.06;34.70
71573;BME280;59408;51.032;9.410;2022-07-23T12:42:45;99247.16;;;31.51;35.87
71573;BME280;59408;51.032;9.410;2022-07-23T12:45:12;99259.88;;;32.60;33.68
71573;BME280;59408;51.032;9.410;2022-07-23T12:48:02;99245.91;;;32.80;30.94
71573;BME280;59408;51.032;9.410;2022-07-23T12:50:58;99262.69;;;33.42;30.92
71573;BME280;59408;51.032;9.410;2022-07-23T12:53:27;99259.53;;;31.95;32.72
71573;BME280;59408;51.032;9.410;2022-07-23T12:55:59;99265.19;;;32.19;33.12
71573;BME280;59408;51.032;9.410;2022-07-23T12:58:47;99260.91;;;32.48;33.89
71573;BME280;59408;51.032;9.410;2022-07-23T13:01:28;99262.56;;;32.39;32.14
71573;BME280;59408;51.032;9.410;2022-07-23T13:03:58;99255.00;;;32.22;31.59
71573;BME280;59408;51.032;9.410;2022-07-23T13:06:28;99259.06;;;31.55;31.88
71573;BME280;59408;51.032;9.410;2022-07-23T13:08:54;99256.69;;;31.20;34.04
71573;BME280;59408;51.032;9.410;2022-07-23T13:11:22;99260.50;;;30.72;33.54
71573;BME280;59408;51.032;9.410;2022-07-23T13:13:49;99258.00;;;30.65;33.47